NCAR-RAP Real-Time Weather Data

Output produced by METARs form (21 May 2019  10:59 UTC)
found at http://weather.rap.ucar.edu/surface/
 
RJTF 210800Z 35004KT 310V030 9999 FEW015 BKN030 BKN060 20/19 Q1000
RJTF 210700Z 33005KT 8000 -SHRA FEW010 BKN015 BKN030 20/19 Q1000
RJTF 210600Z 26004KT 220V300 7000 -SHRA FEW005 SCT008 BKN015 21/20 Q1000
RJTF 210500Z 18007KT 140V220 5000 -SHRA BR FEW005 SCT008 BKN012 21/20 Q1000
RJTF 210434Z 20008KT 160V250 3000 +SHRA BR SCT005 BKN008 BKN010 21/20 Q1000 RMK 3ST005 6ST008 7CU010 A2954
RJTF 210423Z 20010KT 160V240 0300 +SHRA BR SCT005 BKN008 BKN012 21/20 Q1000 RMK 3ST005 6ST008 7CU012 A2955
RJTF 210400Z 18010G20KT 140V220 4000 SHRA BR FEW005 BKN008 BKN012 21/20 Q1000
RJTF 210300Z 17011KT 150V210 4000 SHRA BR FEW005 BKN008 BKN012 21/20 Q1000
RJTF 210200Z 17014G28KT 4000 SHRA BR FEW005 BKN008 BKN012 21/20 Q1000
RJTF 210100Z 17013KT 4000 SHRA BR FEW005 BKN008 BKN012 21/20 Q1000
RJTF 210038Z 17016KT 4000 -SHRA BR FEW005 BKN008 BKN012 21/20 Q1000 RMK 1ST005 5ST008 7CU012 A2954
RJTF 210014Z 17017G28KT 130V190 4000 SHRA BR FEW005 BKN008 BKN012 20/20 Q1000 RMK 1ST005 5ST008 7CU012 A2956
RJTF 210000Z 16017KT 4000 -SHRA BR FEW005 SCT008 BKN012 20/20 Q1000
RJTF 202330Z 16018G29KT 4500 -SHRA BR FEW005 BKN008 BKN015 20/19 Q1001
RJTF 200800Z 19009KT 9999 SCT030 SCT060 BKN080 22/14 Q1013
RJTF 200700Z 18011KT 9999 -SHRA BKN030 BKN070 22/15 Q1013
RJTF 200600Z 17013KT 140V200 9999 SCT030 SCT050 BKN070 23/13 Q1014
RJTF 200500Z 18012KT 150V230 9999 SCT015 SCT030 BKN050 24/13 Q1014
RJTF 200400Z 16010KT 130V190 9999 SCT030 SCT050 BKN070 22/14 Q1015
RJTF 200300Z 18009KT 150V220 9999 VCSH FEW015 SCT030 BKN070 23/13 Q1016
RJTF 200200Z 20010KT 160V230 9999 -SHRA FEW015 BKN030 BKN050 21/14 Q1017
RJTF 200100Z 16010KT 120V200 9999 FEW020 SCT030 BKN050 22/12 Q1017
RJTF 200000Z 14009KT 9999 FEW020 SCT030 BKN/// 24/14 Q1017
RJTF 192330Z 15010KT 110V180 9999 FEW020 SCT030 BKN070 22/14 Q1017
RJTF 190800Z 18010KT 140V220 9999 FEW030 SCT/// 22/13 Q1021
RJTF 190700Z 18010KT 140V230 9999 FEW030 SCT050 23/12 Q1021
RJTF 190600Z 19010KT 160V230 9999 FEW030 SCT050 23/12 Q1020
RJTF 190500Z 19010KT 150V220 9999 FEW020 SCT030 BKN070 24/14 Q1021
RJTF 190400Z 18009KT 9999 FEW020 SCT030 BKN050 22/13 Q1021
RJTF 190300Z 16007KT 120V210 9999 FEW020 SCT030 BKN050 23/12 Q1022
RJTF 190200Z 15006KT 050V220 9999 SCT030 24/11 Q1022
RJTF 190100Z 13004KT 050V200 9999 FEW030 SCT050 22/11 Q1023
RJTF 190000Z 15008KT 110V210 9999 FEW020 BKN030 23/12 Q1023
RJTF 182330Z 13010KT 9999 FEW020 SCT030 22/12 Q1023